Taunton, Massachusetts
Current Conditions -  °F | °C
As of 10:09 AM on Tuesday 21 Oct 2014 (Local Time) from KTAN Reporting Station
Broken Clouds Broken Clouds  
Wind Chill: 58°   Ceiling: 1400
Heat Index: 58°   Visibility: 10mi
Dew Point: 53°   Wind: 0mph
Humidity: 84%   Direction: NA
Pressure: 29.95"   Gusts: NA
Location:  41.9°N, 71.09°W
Report Text: KTAN 211409Z AUTO 00000KT 10SM BKN014 BKN060 14/12 A2995 RMK AO2 T01440117
Loading
Personal Weather Stations






























Interactive Weather Map
Tropical Storm Tracking
New forecast layout! Learn more

10-Day Weather Forecast

Advertisements
Track Severe Weather on mobile